Time;durP1;ratioP1;P1;durP2;ratioP2;P2;SDS_P1;SDS_P2;PMS_P1;PMS_P2;Temp;Humidity;BMP_temperature;BMP_pressure;BME280_temperature;BME280_humidity;BME280_pressure;Samples;Min_cycle;Max_cycle;Signal;HPM_P1;HPM_P2
2021/11/16 00:00:25;;;;;;;48.40;19.50;;;7.70;99.90;;;;;;4893135;29;20479;-51
2021/11/16 00:02:52;;;;;;;44.40;16.50;;;7.80;99.90;;;;;;4900546;23;20516;-55
2021/11/16 00:05:20;;;;;;;32.60;16.83;;;7.80;99.90;;;;;;4893577;29;20451;-53
2021/11/16 00:07:51;;;;;;;59.03;18.07;;;7.80;99.90;;;;;;4900769;23;20522;-51
2021/11/16 00:10:18;;;;;;;33.87;17.20;;;7.80;99.90;;;;;;4892866;29;20479;-57
2021/11/16 00:12:45;;;;;;;34.37;15.80;;;7.80;99.90;;;;;;4900764;23;20495;-54
2021/11/16 00:15:13;;;;;;;41.00;18.00;;;7.80;99.90;;;;;;4892604;29;20487;-53
2021/11/16 00:17:39;;;;;;;44.00;17.47;;;7.80;99.90;;;;;;4899856;23;20539;-50
2021/11/16 00:20:11;;;;;;;40.30;19.00;;;7.80;99.90;;;;;;4892352;29;20801;-54
2021/11/16 00:22:49;;;;;;;44.43;19.87;;;7.80;99.90;;;;;;4915438;23;20471;-39
2021/11/16 00:25:24;;;;;;;40.00;17.50;;;7.80;99.90;;;;;;4872952;29;20516;-53
2021/11/16 00:27:51;;;;;;;39.87;17.30;;;7.80;99.90;;;;;;4898231;23;20511;-56
2021/11/16 00:30:18;;;;;;;35.40;15.93;;;7.80;99.90;;;;;;4874634;29;20440;-54
2021/11/16 00:32:46;;;;;;;45.13;18.77;;;7.80;99.90;;;;;;4874115;29;20464;-58
2021/11/16 00:35:13;;;;;;;33.63;17.53;;;7.80;99.90;;;;;;4897576;23;20558;-55
2021/11/16 00:37:42;;;;;;;36.87;17.90;;;7.80;99.90;;;;;;4892690;29;20466;-52
2021/11/16 00:40:16;;;;;;;37.50;17.40;;;7.80;99.90;;;;;;4899546;23;20550;-52
2021/11/16 00:42:43;;;;;;;40.67;18.80;;;7.70;99.90;;;;;;4892673;29;21024;-56
2021/11/16 00:45:13;;;;;;;49.43;18.97;;;7.80;99.90;;;;;;4915217;23;20526;-54
2021/11/16 00:47:40;;;;;;;43.17;17.97;;;7.80;99.90;;;;;;4892238;29;20559;-52
2021/11/16 00:50:09;;;;;;;42.63;19.70;;;7.80;99.90;;;;;;4899904;23;20885;-55
2021/11/16 00:52:38;;;;;;;49.30;18.20;;;7.80;99.90;;;;;;4892025;29;20476;-51
2021/11/16 00:55:07;;;;;;;36.00;16.10;;;7.80;99.90;;;;;;4898805;23;20495;-50
2021/11/16 00:57:34;;;;;;;42.30;18.60;;;7.80;99.90;;;;;;4892147;29;20483;-58
2021/11/16 01:00:03;;;;;;;42.30;17.00;;;7.80;99.90;;;;;;4899575;23;20527;-56
2021/11/16 01:02:30;;;;;;;29.60;15.67;;;7.80;99.90;;;;;;4891981;29;20532;-53
2021/11/16 01:04:57;;;;;;;36.13;17.80;;;7.80;99.90;;;;;;4899401;23;20562;-55
2021/11/16 01:07:24;;;;;;;32.13;16.73;;;7.80;99.90;;;;;;4892719;29;20558;-56
2021/11/16 01:09:51;;;;;;;49.50;19.63;;;7.80;99.90;;;;;;4894797;23;20495;-57
2021/11/16 01:12:21;;;;;;;43.53;20.83;;;7.80;99.90;;;;;;4887921;29;20504;-52
2021/11/16 01:14:47;;;;;;;41.83;17.17;;;7.80;99.90;;;;;;4906327;23;20499;-51
2021/11/16 01:17:14;;;;;;;51.33;21.37;;;7.80;99.90;;;;;;4885854;29;20447;-54
2021/11/16 01:22:14;;;;;;;45.57;18.53;;;7.80;99.90;;;;;;4914501;23;20531;-56
2021/11/16 01:24:42;;;;;;;42.53;17.93;;;7.70;99.90;;;;;;4892598;29;20492;-56
2021/11/16 01:27:26;;;;;;;34.50;15.93;;;7.70;99.90;;;;;;4893488;29;20482;-56
2021/11/16 01:29:54;;;;;;;45.20;17.43;;;7.70;99.90;;;;;;4896528;29;20432;-58
2021/11/16 01:32:31;;;;;;;38.80;15.83;;;7.70;99.90;;;;;;4913789;23;20587;-57
2021/11/16 01:34:58;;;;;;;41.77;17.67;;;7.70;99.90;;;;;;4886381;29;20532;-57
2021/11/16 01:37:31;;;;;;;45.40;18.10;;;7.60;99.90;;;;;;4906594;29;20676;-53
2021/11/16 01:40:01;;;;;;;43.20;16.87;;;7.60;99.90;;;;;;4933450;23;20526;-55
2021/11/16 01:42:30;;;;;;;39.10;18.03;;;7.60;99.90;;;;;;4929095;23;20497;-58
2021/11/16 01:44:56;;;;;;;35.07;15.37;;;7.50;99.90;;;;;;4917614;23;20494;-57
2021/11/16 01:47:23;;;;;;;39.23;17.07;;;7.50;99.90;;;;;;4911510;23;20499;-56
2021/11/16 01:49:50;;;;;;;33.50;17.60;;;7.50;99.90;;;;;;4905900;29;20469;-57
2021/11/16 01:52:24;;;;;;;42.07;16.90;;;7.50;99.90;;;;;;4909186;23;20494;-51
2021/11/16 01:54:50;;;;;;;43.87;18.90;;;7.50;99.90;;;;;;4893619;29;20450;-56
2021/11/16 01:57:18;;;;;;;48.57;20.13;;;7.50;99.90;;;;;;4885968;23;20484;-56
2021/11/16 01:59:46;;;;;;;39.33;16.30;;;7.50;99.90;;;;;;4864716;29;20483;-57
2021/11/16 02:02:13;;;;;;;40.50;19.60;;;7.50;99.90;;;;;;4884869;23;20508;-56
2021/11/16 02:04:40;;;;;;;38.50;16.73;;;7.50;99.90;;;;;;4858264;29;20500;-52
2021/11/16 02:07:07;;;;;;;36.73;17.20;;;7.50;99.90;;;;;;4873302;23;20505;-51
2021/11/16 02:09:35;;;;;;;42.80;17.90;;;7.50;99.90;;;;;;4915821;23;20475;-43
2021/11/16 02:12:02;;;;;;;46.70;18.83;;;7.50;99.90;;;;;;4909274;29;20436;-52
2021/11/16 02:14:28;;;;;;;45.90;18.10;;;7.50;99.90;;;;;;4889713;23;20511;-54
2021/11/16 02:16:56;;;;;;;39.13;17.20;;;7.50;99.90;;;;;;4877236;29;20495;-53
2021/11/16 02:19:23;;;;;;;38.30;17.60;;;7.50;99.90;;;;;;4911181;23;20535;-55
2021/11/16 02:21:52;;;;;;;44.10;20.50;;;7.50;99.90;;;;;;4898434;29;20861;-52
2021/11/16 02:24:19;;;;;;;49.70;18.80;;;7.50;99.90;;;;;;4903823;23;20523;-54
2021/11/16 02:26:46;;;;;;;38.63;19.73;;;7.50;99.90;;;;;;4896607;29;20475;-54
2021/11/16 02:29:13;;;;;;;45.93;19.57;;;7.50;99.90;;;;;;4903602;23;20506;-54
2021/11/16 02:31:40;;;;;;;41.80;18.73;;;7.40;99.90;;;;;;4896134;29;20507;-53
2021/11/16 02:34:07;;;;;;;47.87;20.00;;;7.40;99.90;;;;;;4898190;23;20654;-54
2021/11/16 02:36:35;;;;;;;45.80;18.67;;;7.40;99.90;;;;;;4877355;29;20437;-55
2021/11/16 02:39:06;;;;;;;36.63;15.97;;;7.50;99.90;;;;;;4882211;23;20483;-56
2021/11/16 02:41:34;;;;;;;37.30;17.33;;;7.50;99.90;;;;;;4882859;29;20464;-53
2021/11/16 02:44:02;;;;;;;41.23;16.93;;;7.40;99.90;;;;;;4898835;23;20551;-56
2021/11/16 02:46:29;;;;;;;41.67;17.00;;;7.30;99.90;;;;;;4880521;29;20890;-52
2021/11/16 02:48:55;;;;;;;38.23;18.00;;;7.40;99.90;;;;;;4877064;29;20484;-58
2021/11/16 02:51:22;;;;;;;35.17;16.07;;;7.30;99.90;;;;;;4909087;23;20475;-51
2021/11/16 02:53:49;;;;;;;38.90;18.77;;;7.30;99.90;;;;;;4904860;29;20754;-53
2021/11/16 02:56:17;;;;;;;33.60;16.47;;;7.30;99.90;;;;;;4899252;23;20562;-53
2021/11/16 02:58:44;;;;;;;40.57;17.40;;;7.40;99.90;;;;;;4899578;29;20454;-54
2021/11/16 03:01:14;;;;;;;41.90;20.27;;;7.40;99.90;;;;;;4894978;23;20495;-55
2021/11/16 03:03:42;;;;;;;44.20;18.03;;;7.30;99.90;;;;;;4883788;29;20861;-55
2021/11/16 03:06:11;;;;;;;53.33;19.53;;;7.40;99.90;;;;;;4907230;23;20506;-52
2021/11/16 03:08:39;;;;;;;37.07;16.37;;;7.40;99.90;;;;;;4897036;29;20940;-55
2021/11/16 03:11:08;;;;;;;34.63;17.80;;;7.40;99.90;;;;;;4904246;23;20498;-54
2021/11/16 03:13:37;;;;;;;38.77;19.73;;;7.40;99.90;;;;;;4892953;29;20444;-54
2021/11/16 03:16:09;;;;;;;32.23;16.20;;;7.30;99.90;;;;;;4904109;23;20490;-56
2021/11/16 03:18:36;;;;;;;46.77;18.00;;;7.40;99.90;;;;;;4893236;29;20455;-54
2021/11/16 03:21:02;;;;;;;37.87;16.20;;;7.40;99.90;;;;;;4898919;23;20491;-51
2021/11/16 03:23:30;;;;;;;41.77;18.30;;;7.40;99.90;;;;;;4880415;29;20521;-52
2021/11/16 03:25:58;;;;;;;44.07;19.90;;;7.40;99.90;;;;;;4898269;23;20528;-53
2021/11/16 03:28:28;;;;;;;36.93;17.20;;;7.40;99.90;;;;;;4885015;29;20508;-56
2021/11/16 03:31:08;;;;;;;39.47;19.00;;;7.40;99.90;;;;;;4889782;23;20422;-53
2021/11/16 03:33:35;;;;;;;43.07;18.30;;;7.40;99.90;;;;;;5006502;23;20495;-54
2021/11/16 03:36:02;;;;;;;42.17;17.83;;;7.40;99.90;;;;;;4882122;29;20464;-49
2021/11/16 03:38:28;;;;;;;36.53;18.43;;;7.40;99.90;;;;;;4892719;23;20511;-49
2021/11/16 03:40:56;;;;;;;42.20;19.10;;;7.40;99.90;;;;;;4884403;29;20531;-50
2021/11/16 03:43:25;;;;;;;46.63;16.80;;;7.40;99.90;;;;;;4887164;23;20591;-52
2021/11/16 03:45:52;;;;;;;43.77;17.50;;;7.40;99.90;;;;;;4877785;29;20458;-54
2021/11/16 03:48:22;;;;;;;45.43;18.80;;;7.40;99.90;;;;;;4893087;23;20502;-55
2021/11/16 03:50:49;;;;;;;33.47;16.50;;;7.40;99.90;;;;;;4895182;29;20471;-49
2021/11/16 03:53:16;;;;;;;42.03;18.60;;;7.40;99.90;;;;;;4896113;23;20487;-55
2021/11/16 03:55:45;;;;;;;36.53;17.80;;;7.40;99.90;;;;;;4880880;29;20483;-60
2021/11/16 03:58:15;;;;;;;44.80;18.10;;;7.40;99.90;;;;;;4880432;29;20447;-54
2021/11/16 04:00:45;;;;;;;37.53;14.70;;;7.40;99.90;;;;;;4885878;23;20559;-54
2021/11/16 04:03:13;;;;;;;39.30;17.70;;;7.30;99.90;;;;;;4885583;29;20554;-55
2021/11/16 04:05:41;;;;;;;41.63;18.93;;;7.30;99.90;;;;;;4891347;23;20507;-51
2021/11/16 04:08:08;;;;;;;50.60;20.23;;;7.40;99.90;;;;;;4886275;29;20511;-53
2021/11/16 04:10:35;;;;;;;36.20;17.50;;;7.40;99.90;;;;;;4900715;23;20495;-52
2021/11/16 04:13:03;;;;;;;40.73;18.33;;;7.40;99.90;;;;;;4887142;29;20471;-54
2021/11/16 04:15:32;;;;;;;39.07;19.50;;;7.40;99.90;;;;;;4894838;23;20484;-55
2021/11/16 04:17:59;;;;;;;45.30;17.50;;;7.40;99.90;;;;;;4891644;29;20876;-53
2021/11/16 04:20:28;;;;;;;38.60;18.07;;;7.40;99.90;;;;;;4888818;29;20583;-55
2021/11/16 04:22:59;;;;;;;44.67;17.50;;;7.40;99.90;;;;;;4886697;29;20462;-52
2021/11/16 04:25:27;;;;;;;42.67;19.93;;;7.40;99.90;;;;;;4886123;29;20440;-54
2021/11/16 04:27:54;;;;;;;42.07;16.47;;;7.30;99.90;;;;;;4886111;29;20451;-52
2021/11/16 04:30:24;;;;;;;41.17;18.13;;;7.30;99.90;;;;;;4890333;29;20475;-52
2021/11/16 04:32:51;;;;;;;44.97;20.50;;;7.30;99.90;;;;;;4921634;23;20519;-45
2021/11/16 04:35:18;;;;;;;39.60;16.70;;;7.30;99.90;;;;;;4896869;29;20450;-40
2021/11/16 04:37:48;;;;;;;41.07;18.47;;;7.40;99.90;;;;;;4908587;23;20491;-52
2021/11/16 04:40:21;;;;;;;36.33;17.73;;;7.40;99.90;;;;;;4890526;29;20473;-53
2021/11/16 04:42:48;;;;;;;54.40;18.70;;;7.40;99.90;;;;;;4891377;23;20511;-52
2021/11/16 04:45:21;;;;;;;44.17;17.87;;;7.40;99.90;;;;;;4890527;29;20498;-51
2021/11/16 04:47:51;;;;;;;38.93;16.83;;;7.40;99.90;;;;;;4892856;23;20502;-52
2021/11/16 04:50:30;;;;;;;36.40;17.30;;;7.30;99.90;;;;;;4893973;29;20424;-44
2021/11/16 04:53:11;;;;;;;45.17;20.47;;;7.30;99.90;;;;;;4893847;23;20533;-53
2021/11/16 04:55:51;;;;;;;43.30;18.93;;;7.40;99.90;;;;;;4886780;29;20555;-54
2021/11/16 05:03:51;;;;;;;38.27;17.97;;;7.40;99.90;;;;;;4897433;23;20537;-53
2021/11/16 05:06:18;;;;;;;40.27;17.47;;;7.40;99.90;;;;;;4883450;29;20459;-53
2021/11/16 05:08:46;;;;;;;36.50;17.30;;;7.40;99.90;;;;;;4882991;23;20550;-52
2021/11/16 05:11:15;;;;;;;37.87;18.00;;;7.40;99.90;;;;;;4862163;29;20452;-55
2021/11/16 05:13:43;;;;;;;43.50;17.80;;;7.40;99.90;;;;;;4874345;23;20476;-58
2021/11/16 05:16:10;;;;;;;49.40;21.23;;;7.40;99.90;;;;;;4880570;29;20448;-53
2021/11/16 05:18:37;;;;;;;44.60;19.90;;;7.40;99.90;;;;;;4888071;23;20479;-52
2021/11/16 05:21:04;;;;;;;41.97;20.07;;;7.40;99.90;;;;;;4880514;29;20463;-59
2021/11/16 05:23:35;;;;;;;48.60;21.47;;;7.30;99.90;;;;;;4884099;29;20558;-57
2021/11/16 05:26:02;;;;;;;43.67;17.53;;;7.30;99.90;;;;;;4892363;23;20494;-58
2021/11/16 05:28:31;;;;;;;47.87;19.70;;;7.30;99.90;;;;;;4884809;29;20459;-58
2021/11/16 05:30:57;;;;;;;43.27;17.30;;;7.20;99.90;;;;;;4891047;23;20487;-52
2021/11/16 05:33:24;;;;;;;52.87;20.63;;;7.20;99.90;;;;;;4883356;29;20459;-52
2021/11/16 05:35:52;;;;;;;39.23;15.77;;;7.20;99.90;;;;;;4890165;23;20519;-51
2021/11/16 05:38:25;;;;;;;84.83;20.10;;;7.20;99.90;;;;;;4889057;29;20435;-43
2021/11/16 05:48:41;;;;;;;50.50;19.67;;;7.20;99.90;;;;;;3796972;23;20486;-49
2021/11/16 06:01:35;;;;;;;40.97;17.73;;;7.00;99.90;;;;;;4324762;23;20470;-44
2021/11/16 06:04:03;;;;;;;40.90;18.40;;;7.00;99.90;;;;;;4906586;29;20502;-42
2021/11/16 06:11:45;;;;;;;47.93;20.77;;;7.00;99.90;;;;;;4142687;23;20466;-51
2021/11/16 06:14:17;;;;;;;39.13;17.17;;;6.90;99.90;;;;;;4902968;29;20431;-52
2021/11/16 06:16:44;;;;;;;43.97;18.73;;;6.90;99.90;;;;;;4904859;23;20519;-55
2021/11/16 06:19:12;;;;;;;45.63;17.47;;;6.90;99.90;;;;;;4914059;29;20443;-54
2021/11/16 06:24:22;;;;;;;42.87;18.07;;;6.80;99.90;;;;;;4909031;23;20501;-55
2021/11/16 06:26:48;;;;;;;38.73;19.30;;;6.80;99.90;;;;;;4901960;29;20489;-55
2021/11/16 06:29:15;;;;;;;44.07;17.60;;;6.80;99.90;;;;;;4916735;23;20549;-53
2021/11/16 06:31:44;;;;;;;33.57;16.20;;;6.80;99.90;;;;;;4923131;29;20794;-53
2021/11/16 06:34:12;;;;;;;50.53;20.97;;;6.80;99.90;;;;;;4914445;23;20490;-50
2021/11/16 06:36:42;;;;;;;46.17;18.07;;;6.90;99.90;;;;;;4905593;29;20932;-57
2021/11/16 06:39:11;;;;;;;32.30;15.77;;;6.80;99.90;;;;;;4905843;23;21010;-53
2021/11/16 06:41:39;;;;;;;44.10;18.70;;;6.80;99.90;;;;;;4904549;29;20442;-55
2021/11/16 06:44:07;;;;;;;43.17;17.20;;;6.70;99.90;;;;;;4898805;23;20487;-54
2021/11/16 06:46:34;;;;;;;41.33;17.53;;;6.80;99.90;;;;;;4885512;29;20993;-55
2021/11/16 06:49:03;;;;;;;32.27;15.30;;;6.80;99.90;;;;;;4881769;23;20595;-58
2021/11/16 06:51:37;;;;;;;46.57;17.87;;;6.80;99.90;;;;;;4873145;29;20444;-55
2021/11/16 06:54:04;;;;;;;41.80;15.87;;;6.80;99.90;;;;;;4885055;23;20503;-52
2021/11/16 06:56:31;;;;;;;33.67;16.90;;;6.80;99.90;;;;;;4869856;29;20453;-49
2021/11/16 06:58:57;;;;;;;39.37;16.73;;;6.80;99.90;;;;;;4878596;23;20472;-55
2021/11/16 07:01:24;;;;;;;37.53;16.07;;;6.90;99.90;;;;;;4892576;29;20467;-54
2021/11/16 07:03:58;;;;;;;42.50;17.03;;;6.90;99.90;;;;;;4893468;29;20447;-48
2021/11/16 07:06:44;;;;;;;32.53;14.83;;;7.00;99.90;;;;;;4884469;23;20495;-56
2021/11/16 07:11:55;;;;;;;38.73;15.97;;;7.00;99.90;;;;;;4916894;23;20530;-50
2021/11/16 07:17:08;;;;;;;37.70;18.00;;;6.90;99.90;;;;;;4903365;23;20475;-52
2021/11/16 07:22:21;;;;;;;44.93;19.90;;;6.90;99.90;;;;;;4895068;23;20515;-55
2021/11/16 07:27:33;;;;;;;36.87;16.73;;;6.90;99.90;;;;;;4906441;23;20959;-49
2021/11/16 07:32:45;;;;;;;42.10;16.37;;;6.90;99.90;;;;;;4927494;23;20505;-55
2021/11/16 07:37:58;;;;;;;49.67;20.03;;;7.00;99.90;;;;;;4903640;23;20531;-51
2021/11/16 07:43:09;;;;;;;39.00;19.87;;;7.00;99.90;;;;;;4890296;23;20597;-54
2021/11/16 07:48:19;;;;;;;43.53;18.40;;;7.10;99.90;;;;;;4905926;23;20483;-52
2021/11/16 07:53:31;;;;;;;40.97;16.73;;;7.30;99.90;;;;;;4940974;23;20513;-54
2021/11/16 07:58:59;;;;;;;47.17;19.30;;;7.40;99.90;;;;;;4925412;23;20497;-54
2021/11/16 08:01:36;;;;;;;42.57;17.77;;;7.40;99.90;;;;;;4942975;23;20955;-53
2021/11/16 08:04:18;;;;;;;43.70;17.20;;;7.50;99.90;;;;;;4881762;29;20464;-55
2021/11/16 08:06:53;;;;;;;44.70;17.10;;;7.60;99.90;;;;;;4906127;23;20504;-50
2021/11/16 08:09:27;;;;;;;48.97;18.50;;;7.70;99.90;;;;;;4883254;29;20479;-50
2021/11/16 08:12:31;;;;;;;40.70;15.97;;;7.70;99.90;;;;;;4906518;23;20452;-51
2021/11/16 08:15:00;;;;;;;35.20;14.27;;;7.80;99.90;;;;;;4882114;29;20450;-53
2021/11/16 08:17:28;;;;;;;33.07;15.30;;;7.90;99.90;;;;;;4914076;23;20561;-52
2021/11/16 08:19:57;;;;;;;61.73;18.23;;;7.90;99.90;;;;;;4920367;29;20486;-51
2021/11/16 08:22:24;;;;;;;40.07;17.43;;;7.90;99.90;;;;;;4942280;23;20540;-53
2021/11/16 08:24:55;;;;;;;49.73;19.03;;;7.90;99.90;;;;;;4919878;29;20511;-51
2021/11/16 08:27:23;;;;;;;38.67;17.13;;;8.00;99.90;;;;;;4943595;23;20480;-55
2021/11/16 08:29:59;;;;;;;41.73;16.77;;;8.00;99.90;;;;;;4920048;29;20446;-54
2021/11/16 08:34:57;;;;;;;36.63;14.90;;;8.10;99.90;;;;;;4906636;23;20494;-53
2021/11/16 08:37:26;;;;;;;43.97;17.97;;;8.10;99.90;;;;;;4900847;29;20432;-50
2021/11/16 08:39:59;;;;;;;42.17;18.20;;;8.20;99.90;;;;;;4939725;23;20494;-55
2021/11/16 08:42:31;;;;;;;51.73;20.00;;;8.20;99.90;;;;;;4916102;29;20439;-51
2021/11/16 08:45:01;;;;;;;42.33;17.90;;;8.20;99.90;;;;;;4919363;29;20475;-50
2021/11/16 08:47:30;;;;;;;38.73;15.50;;;8.30;99.90;;;;;;4919987;29;20526;-48
2021/11/16 08:49:58;;;;;;;45.17;19.30;;;8.30;99.90;;;;;;4911826;23;20523;-51
2021/11/16 08:52:27;;;;;;;38.83;16.43;;;8.30;99.90;;;;;;4901397;29;20460;-52
2021/11/16 08:54:58;;;;;;;43.27;16.83;;;8.40;99.90;;;;;;4921882;23;20505;-57
2021/11/16 08:57:27;;;;;;;41.00;16.63;;;8.40;99.90;;;;;;4920156;29;20466;-51
2021/11/16 08:59:55;;;;;;;48.50;16.90;;;8.50;99.90;;;;;;4926382;23;20523;-52
2021/11/16 09:02:24;;;;;;;38.40;16.23;;;8.60;99.90;;;;;;4918868;29;20471;-56
2021/11/16 09:04:51;;;;;;;32.83;16.27;;;8.60;99.90;;;;;;4931687;23;20518;-51
2021/11/16 09:07:23;;;;;;;42.87;17.07;;;8.70;99.90;;;;;;4900450;29;20471;-52
2021/11/16 09:10:07;;;;;;;43.10;16.80;;;8.90;99.90;;;;;;4936836;23;20503;-51
2021/11/16 09:12:38;;;;;;;43.33;20.73;;;8.90;99.90;;;;;;4901464;29;20482;-53
2021/11/16 09:15:07;;;;;;;37.10;16.57;;;9.00;99.90;;;;;;4986478;23;20514;-51
2021/11/16 09:17:34;;;;;;;38.77;14.63;;;9.00;99.90;;;;;;4919399;29;20514;-53
2021/11/16 09:20:25;;;;;;;40.93;18.80;;;9.00;99.90;;;;;;4940371;23;20609;-53
2021/11/16 09:22:54;;;;;;;43.57;16.00;;;9.10;99.90;;;;;;4919786;29;20542;-51
2021/11/16 09:25:26;;;;;;;39.13;17.17;;;9.10;99.90;;;;;;4940274;23;20522;-52
2021/11/16 09:28:05;;;;;;;40.97;16.23;;;9.10;99.90;;;;;;4919915;29;20474;-55
2021/11/16 09:30:41;;;;;;;40.10;18.13;;;9.20;99.90;;;;;;4954983;23;20486;-58
2021/11/16 09:33:16;;;;;;;48.10;17.57;;;9.20;99.90;;;;;;4919733;29;20458;-55
2021/11/16 09:35:56;;;;;;;41.27;16.17;;;9.10;99.90;;;;;;4993150;23;20482;-56
2021/11/16 09:38:58;;;;;;;46.80;18.20;;;9.10;99.90;;;;;;4900890;29;20480;-50
2021/11/16 09:41:37;;;;;;;44.77;16.57;;;9.10;99.90;;;;;;4931345;23;20553;-54
2021/11/16 09:44:12;;;;;;;44.63;16.53;;;9.10;99.90;;;;;;4919809;29;20461;-63
2021/11/16 09:46:52;;;;;;;41.97;15.80;;;9.10;99.90;;;;;;4946001;23;20514;-57
2021/11/16 09:49:27;;;;;;;41.90;17.40;;;9.10;99.90;;;;;;4886438;29;20423;-62
2021/11/16 09:51:59;;;;;;;49.90;18.77;;;9.10;99.90;;;;;;4882451;29;20495;-61
2021/11/16 09:54:26;;;;;;;49.10;18.77;;;9.10;99.90;;;;;;4884306;29;20937;-61
2021/11/16 09:57:08;;;;;;;44.63;16.57;;;9.10;99.90;;;;;;4898534;23;21056;-59
2021/11/16 09:59:37;;;;;;;34.17;15.30;;;9.10;99.90;;;;;;4901714;29;20793;-60
2021/11/16 10:02:04;;;;;;;35.77;17.10;;;9.10;99.90;;;;;;4903406;29;20466;-60
2021/11/16 10:04:35;;;;;;;39.60;16.33;;;9.10;99.90;;;;;;4902565;29;20494;-58
2021/11/16 10:07:02;;;;;;;36.73;16.60;;;9.20;99.90;;;;;;4926998;23;20844;-61
2021/11/16 10:09:29;;;;;;;41.73;16.67;;;9.30;99.90;;;;;;4906048;29;20459;-63
2021/11/16 10:11:56;;;;;;;41.13;16.40;;;9.30;99.90;;;;;;4930133;23;20831;-64
2021/11/16 10:14:24;;;;;;;35.90;16.37;;;9.40;99.90;;;;;;4909392;29;20438;-61
2021/11/16 10:16:52;;;;;;;35.47;17.33;;;9.40;99.90;;;;;;4916361;23;20517;-66
2021/11/16 10:19:19;;;;;;;39.80;16.87;;;9.50;99.90;;;;;;4908527;29;20457;-64
2021/11/16 10:21:46;;;;;;;41.00;16.43;;;9.50;99.90;;;;;;4916027;23;20465;-57
2021/11/16 10:24:26;;;;;;;35.93;16.57;;;9.50;99.90;;;;;;4907357;29;20474;-64
2021/11/16 10:26:57;;;;;;;40.23;15.07;;;9.50;99.90;;;;;;4914108;23;20474;-58
2021/11/16 10:29:25;;;;;;;41.40;14.80;;;9.50;99.90;;;;;;4905723;29;20458;-62
2021/11/16 10:31:52;;;;;;;37.70;15.73;;;9.50;99.90;;;;;;4907029;29;20786;-64
2021/11/16 10:34:19;;;;;;;34.40;14.83;;;9.60;99.90;;;;;;4902688;23;20498;-65
2021/11/16 10:36:46;;;;;;;40.87;16.90;;;9.60;99.90;;;;;;4887093;29;20451;-58
2021/11/16 10:39:13;;;;;;;40.13;16.70;;;9.60;99.90;;;;;;4901758;23;20585;-60
2021/11/16 10:41:41;;;;;;;49.53;16.07;;;9.70;99.90;;;;;;4904399;29;20808;-62
2021/11/16 10:44:10;;;;;;;41.50;15.03;;;9.80;99.90;;;;;;4910428;23;20581;-63
2021/11/16 10:46:41;;;;;;;37.57;15.87;;;9.80;99.90;;;;;;4903849;29;20497;-63
2021/11/16 10:49:10;;;;;;;31.60;14.50;;;9.90;99.90;;;;;;4910933;23;20486;-62
2021/11/16 10:51:39;;;;;;;35.37;15.87;;;9.90;99.90;;;;;;4903307;29;20483;-60
2021/11/16 10:54:09;;;;;;;35.33;15.60;;;9.90;99.90;;;;;;4910081;23;20502;-63
2021/11/16 10:56:38;;;;;;;37.90;15.60;;;10.10;99.90;;;;;;4903675;29;20471;-64
2021/11/16 10:59:06;;;;;;;33.17;14.53;;;10.20;99.90;;;;;;4910525;23;20454;-60
2021/11/16 11:01:42;;;;;;;42.17;17.77;;;10.30;99.90;;;;;;4905751;29;20475;-64
2021/11/16 11:04:16;;;;;;;38.87;15.37;;;10.40;99.90;;;;;;4911130;23;20864;-64
2021/11/16 11:06:44;;;;;;;36.00;14.20;;;10.50;99.90;;;;;;4901002;29;20943;-64
2021/11/16 11:09:11;;;;;;;36.27;17.00;;;10.50;99.90;;;;;;4909131;23;20482;-64
2021/11/16 11:11:41;;;;;;;39.13;17.33;;;10.50;99.90;;;;;;4904259;29;20983;-64
2021/11/16 11:14:10;;;;;;;40.33;13.90;;;10.50;99.90;;;;;;4905782;29;20959;-58
2021/11/16 11:16:39;;;;;;;32.93;14.60;;;10.50;99.90;;;;;;4910685;23;20517;-66
2021/11/16 11:19:07;;;;;;;33.87;15.67;;;10.60;99.90;;;;;;4904390;29;20490;-63
2021/11/16 11:21:46;;;;;;;43.63;16.47;;;10.50;99.90;;;;;;4910739;23;20486;-66
2021/11/16 11:24:23;;;;;;;41.33;18.57;;;10.50;99.90;;;;;;4903295;29;20987;-63
2021/11/16 11:26:57;;;;;;;39.70;17.27;;;10.40;99.90;;;;;;4909858;23;20588;-63
2021/11/16 11:29:29;;;;;;;38.83;16.97;;;10.40;99.90;;;;;;4903098;29;20553;-62
2021/11/16 11:32:04;;;;;;;31.33;16.00;;;10.30;99.90;;;;;;4902747;29;20463;-64
2021/11/16 11:34:33;;;;;;;38.93;13.57;;;10.30;99.90;;;;;;4924947;23;20577;-64
2021/11/16 11:37:13;;;;;;;42.67;16.10;;;10.40;99.90;;;;;;4911452;23;20494;-63
2021/11/16 11:39:40;;;;;;;39.67;15.73;;;10.40;99.90;;;;;;4904537;29;20470;-63
2021/11/16 11:42:12;;;;;;;34.77;15.47;;;10.40;99.90;;;;;;4908356;23;20819;-63
2021/11/16 11:44:45;;;;;;;36.73;16.10;;;10.40;99.90;;;;;;4904325;29;20888;-63
2021/11/16 11:47:21;;;;;;;31.07;15.03;;;10.30;99.90;;;;;;4912445;23;20498;-63
2021/11/16 11:49:48;;;;;;;47.07;15.57;;;10.30;99.90;;;;;;4911925;29;20458;-58
2021/11/16 11:52:16;;;;;;;42.43;16.67;;;10.30;99.90;;;;;;4917775;23;20490;-64
2021/11/16 11:54:43;;;;;;;37.30;15.00;;;10.30;99.90;;;;;;4910189;29;20467;-60
2021/11/16 11:57:11;;;;;;;36.83;15.90;;;10.30;99.90;;;;;;4910885;23;20530;-60
2021/11/16 11:59:37;;;;;;;36.27;17.57;;;10.30;99.90;;;;;;4892116;29;20526;-62
2021/11/16 12:02:08;;;;;;;42.97;16.67;;;10.40;99.90;;;;;;4902716;23;20490;-61
2021/11/16 12:04:36;;;;;;;33.93;16.17;;;10.40;99.90;;;;;;4911604;29;20920;-59
2021/11/16 12:07:03;;;;;;;40.27;16.97;;;10.30;99.90;;;;;;4918271;24;20493;-62
2021/11/16 12:09:32;;;;;;;48.57;18.53;;;10.30;99.90;;;;;;4909618;29;20466;-64
2021/11/16 12:11:59;;;;;;;38.00;19.07;;;10.30;99.90;;;;;;4917029;24;20741;-58
2021/11/16 12:14:40;;;;;;;44.67;16.80;;;10.30;99.90;;;;;;4908172;29;20474;-61
2021/11/16 12:17:12;;;;;;;38.40;15.67;;;10.30;99.90;;;;;;4918293;23;20439;-41
2021/11/16 12:19:48;;;;;;;35.90;17.20;;;10.40;99.90;;;;;;4889855;29;20476;-59
2021/11/16 12:24:46;;;;;;;31.77;15.30;;;10.40;99.90;;;;;;4914516;23;20553;-61
2021/11/16 12:27:14;;;;;;;37.00;16.40;;;10.40;99.90;;;;;;4910045;29;20485;-60
2021/11/16 12:29:43;;;;;;;35.20;15.80;;;10.50;99.90;;;;;;4918040;23;20920;-62
2021/11/16 12:32:19;;;;;;;27.90;13.17;;;10.50;99.90;;;;;;4908634;29;20450;-63
2021/11/16 12:34:50;;;;;;;34.10;16.43;;;10.50;99.90;;;;;;4916917;23;20490;-63
2021/11/16 12:37:38;;;;;;;38.23;15.60;;;10.50;99.90;;;;;;4909841;29;20498;-63
2021/11/16 12:40:15;;;;;;;41.70;16.67;;;10.50;99.90;;;;;;4899403;23;20486;-63
2021/11/16 12:45:38;;;;;;;46.20;15.37;;;10.50;99.90;;;;;;4919957;23;20558;-65
2021/11/16 12:48:06;;;;;;;42.57;17.47;;;10.50;99.90;;;;;;4909018;29;20462;-63
2021/11/16 12:50:33;;;;;;;36.20;16.13;;;10.50;99.90;;;;;;4906694;23;20491;-61
2021/11/16 12:53:00;;;;;;;38.33;14.30;;;10.40;99.90;;;;;;4890724;29;20463;-65
2021/11/16 12:55:29;;;;;;;37.97;15.57;;;10.40;99.90;;;;;;4898020;23;20495;-64
2021/11/16 12:57:59;;;;;;;36.33;15.47;;;10.40;99.90;;;;;;4890671;29;20965;-57
2021/11/16 13:00:34;;;;;;;36.47;16.00;;;10.40;99.90;;;;;;4903671;23;20566;-61
2021/11/16 13:03:05;;;;;;;32.80;16.03;;;10.40;99.90;;;;;;4909405;29;20460;-64
2021/11/16 13:05:38;;;;;;;30.50;14.57;;;10.40;99.90;;;;;;4916251;23;20964;-61
2021/11/16 13:08:08;;;;;;;39.07;15.50;;;10.40;99.90;;;;;;4909547;29;20427;-64
2021/11/16 13:10:45;;;;;;;39.90;16.50;;;10.30;99.90;;;;;;4917081;23;20597;-65
2021/11/16 13:13:18;;;;;;;32.87;15.57;;;10.30;99.90;;;;;;4909320;29;20470;-62
2021/11/16 13:15:48;;;;;;;34.60;15.53;;;10.30;99.90;;;;;;4915790;23;20505;-58
2021/11/16 13:18:38;;;;;;;38.13;15.07;;;10.30;99.90;;;;;;4903528;29;20435;-63
2021/11/16 13:21:22;;;;;;;33.37;14.27;;;10.30;99.90;;;;;;4910355;23;20793;-63
2021/11/16 13:23:54;;;;;;;30.30;13.90;;;10.20;99.90;;;;;;4903428;29;20450;-60
2021/11/16 13:26:26;;;;;;;37.30;15.80;;;10.20;99.90;;;;;;4909820;24;20498;-63
2021/11/16 13:29:11;;;;;;;33.83;13.80;;;10.20;99.90;;;;;;4899431;29;20439;-64
2021/11/16 13:32:01;;;;;;;36.47;14.23;;;10.20;99.90;;;;;;4906199;23;20526;-65
2021/11/16 13:34:36;;;;;;;34.57;14.57;;;10.20;99.90;;;;;;4899322;29;20439;-60
2021/11/16 13:37:22;;;;;;;32.37;15.47;;;10.30;99.90;;;;;;4906537;23;20504;-63
2021/11/16 13:39:51;;;;;;;32.67;14.47;;;10.20;99.90;;;;;;4899486;29;20895;-60
2021/11/16 13:42:21;;;;;;;39.50;17.23;;;10.20;99.90;;;;;;4906384;23;20566;-63
2021/11/16 13:44:50;;;;;;;34.47;14.50;;;10.10;99.90;;;;;;4903158;29;20792;-64
2021/11/16 13:47:22;;;;;;;40.10;15.67;;;10.10;99.90;;;;;;4909789;23;20502;-63
2021/11/16 13:49:52;;;;;;;36.17;14.93;;;10.10;99.90;;;;;;4903145;29;20912;-63
2021/11/16 13:52:25;;;;;;;38.27;14.97;;;10.10;99.90;;;;;;4909719;23;20485;-64
2021/11/16 13:54:55;;;;;;;31.17;14.43;;;10.10;99.90;;;;;;4903020;29;20443;-69
2021/11/16 13:57:24;;;;;;;32.70;14.17;;;10.10;99.90;;;;;;4909575;23;20524;-64
2021/11/16 14:00:05;;;;;;;31.53;14.20;;;10.10;99.90;;;;;;4902541;29;20457;-64